sensor_id;sensor_type;location;lat;lon;timestamp;P1;durP1;ratioP1;P2;durP2;ratioP2
70477;SDS011;57956;53.362;-1.518;2023-05-21T00:00:34;4.43;;;1.20;;
70477;SDS011;57956;53.362;-1.518;2023-05-21T00:02:59;4.93;;;1.33;;
70477;SDS011;57956;53.362;-1.518;2023-05-21T00:05:25;5.23;;;1.70;;
70477;SDS011;57956;53.362;-1.518;2023-05-21T00:07:50;5.27;;;1.53;;
70477;SDS011;57956;53.362;-1.518;2023-05-21T00:10:17;4.63;;;1.73;;
70477;SDS011;57956;53.362;-1.518;2023-05-21T00:12:42;4.57;;;1.37;;
70477;SDS011;57956;53.362;-1.518;2023-05-21T00:15:07;5.07;;;1.80;;
70477;SDS011;57956;53.362;-1.518;2023-05-21T00:17:33;6.35;;;1.63;;
70477;SDS011;57956;53.362;-1.518;2023-05-21T00:20:00;5.88;;;1.58;;
70477;SDS011;57956;53.362;-1.518;2023-05-21T00:22:26;4.37;;;1.63;;
70477;SDS011;57956;53.362;-1.518;2023-05-21T00:24:51;4.20;;;1.47;;
70477;SDS011;57956;53.362;-1.518;2023-05-21T00:27:16;5.63;;;1.70;;
70477;SDS011;57956;53.362;-1.518;2023-05-21T00:29:41;4.80;;;1.70;;
70477;SDS011;57956;53.362;-1.518;2023-05-21T00:32:08;7.45;;;1.35;;
70477;SDS011;57956;53.362;-1.518;2023-05-21T00:34:33;5.47;;;1.70;;
70477;SDS011;57956;53.362;-1.518;2023-05-21T00:36:58;3.83;;;1.10;;
70477;SDS011;57956;53.362;-1.518;2023-05-21T00:39:26;7.55;;;1.98;;
70477;SDS011;57956;53.362;-1.518;2023-05-21T00:41:51;6.67;;;1.30;;
70477;SDS011;57956;53.362;-1.518;2023-05-21T00:44:17;6.25;;;1.77;;
70477;SDS011;57956;53.362;-1.518;2023-05-21T00:46:44;5.70;;;1.67;;
70477;SDS011;57956;53.362;-1.518;2023-05-21T00:49:12;7.80;;;2.53;;
70477;SDS011;57956;53.362;-1.518;2023-05-21T00:51:38;7.97;;;1.65;;
70477;SDS011;57956;53.362;-1.518;2023-05-21T00:54:04;4.85;;;1.60;;
70477;SDS011;57956;53.362;-1.518;2023-05-21T00:56:32;8.00;;;2.07;;
70477;SDS011;57956;53.362;-1.518;2023-05-21T00:59:00;4.22;;;1.00;;
70477;SDS011;57956;53.362;-1.518;2023-05-21T01:01:29;4.47;;;1.17;;
70477;SDS011;57956;53.362;-1.518;2023-05-21T01:03:57;4.70;;;1.40;;
70477;SDS011;57956;53.362;-1.518;2023-05-21T01:06:28;7.53;;;1.75;;
70477;SDS011;57956;53.362;-1.518;2023-05-21T01:08:57;4.78;;;1.45;;
70477;SDS011;57956;53.362;-1.518;2023-05-21T01:11:24;5.13;;;1.73;;
70477;SDS011;57956;53.362;-1.518;2023-05-21T01:13:53;4.50;;;1.40;;
70477;SDS011;57956;53.362;-1.518;2023-05-21T01:16:18;6.13;;;2.20;;
70477;SDS011;57956;53.362;-1.518;2023-05-21T01:18:45;6.23;;;1.67;;
70477;SDS011;57956;53.362;-1.518;2023-05-21T01:21:10;4.40;;;1.60;;
70477;SDS011;57956;53.362;-1.518;2023-05-21T01:23:35;4.95;;;1.67;;
70477;SDS011;57956;53.362;-1.518;2023-05-21T01:26:01;7.10;;;1.90;;
70477;SDS011;57956;53.362;-1.518;2023-05-21T01:28:26;5.40;;;1.77;;
70477;SDS011;57956;53.362;-1.518;2023-05-21T01:30:51;6.90;;;1.80;;
70477;SDS011;57956;53.362;-1.518;2023-05-21T01:33:17;6.00;;;1.80;;
70477;SDS011;57956;53.362;-1.518;2023-05-21T01:35:53;5.53;;;1.83;;
70477;SDS011;57956;53.362;-1.518;2023-05-21T01:38:33;7.47;;;1.95;;
70477;SDS011;57956;53.362;-1.518;2023-05-21T01:41:01;8.27;;;2.37;;
70477;SDS011;57956;53.362;-1.518;2023-05-21T01:43:28;6.15;;;1.70;;
70477;SDS011;57956;53.362;-1.518;2023-05-21T01:45:54;6.97;;;1.83;;
70477;SDS011;57956;53.362;-1.518;2023-05-21T01:48:21;7.70;;;2.10;;
70477;SDS011;57956;53.362;-1.518;2023-05-21T01:50:47;5.53;;;1.45;;
70477;SDS011;57956;53.362;-1.518;2023-05-21T01:53:14;6.93;;;1.60;;
70477;SDS011;57956;53.362;-1.518;2023-05-21T01:55:39;4.70;;;1.45;;
70477;SDS011;57956;53.362;-1.518;2023-05-21T01:58:06;6.60;;;1.98;;
70477;SDS011;57956;53.362;-1.518;2023-05-21T02:00:31;10.90;;;1.88;;
70477;SDS011;57956;53.362;-1.518;2023-05-21T02:02:58;5.43;;;1.83;;
70477;SDS011;57956;53.362;-1.518;2023-05-21T02:05:26;7.20;;;2.40;;
70477;SDS011;57956;53.362;-1.518;2023-05-21T02:07:51;6.20;;;2.27;;
70477;SDS011;57956;53.362;-1.518;2023-05-21T02:10:17;6.83;;;2.10;;
70477;SDS011;57956;53.362;-1.518;2023-05-21T02:12:43;6.63;;;1.92;;
70477;SDS011;57956;53.362;-1.518;2023-05-21T02:15:08;11.67;;;2.07;;
70477;SDS011;57956;53.362;-1.518;2023-05-21T02:17:33;5.37;;;1.87;;
70477;SDS011;57956;53.362;-1.518;2023-05-21T02:19:59;9.00;;;2.10;;
70477;SDS011;57956;53.362;-1.518;2023-05-21T02:22:40;5.95;;;1.52;;
70477;SDS011;57956;53.362;-1.518;2023-05-21T02:25:06;7.07;;;1.47;;
70477;SDS011;57956;53.362;-1.518;2023-05-21T02:27:32;7.88;;;1.73;;
70477;SDS011;57956;53.362;-1.518;2023-05-21T02:29:59;5.82;;;1.67;;
70477;SDS011;57956;53.362;-1.518;2023-05-21T02:32:24;7.73;;;2.40;;
70477;SDS011;57956;53.362;-1.518;2023-05-21T02:34:49;6.80;;;2.27;;
70477;SDS011;57956;53.362;-1.518;2023-05-21T02:37:15;6.93;;;1.58;;
70477;SDS011;57956;53.362;-1.518;2023-05-21T02:39:41;6.03;;;1.73;;
70477;SDS011;57956;53.362;-1.518;2023-05-21T02:42:06;6.97;;;2.20;;
70477;SDS011;57956;53.362;-1.518;2023-05-21T02:44:31;6.57;;;1.83;;
70477;SDS011;57956;53.362;-1.518;2023-05-21T02:46:57;6.10;;;2.00;;
70477;SDS011;57956;53.362;-1.518;2023-05-21T02:49:22;4.63;;;1.47;;
70477;SDS011;57956;53.362;-1.518;2023-05-21T02:51:47;5.80;;;2.10;;
70477;SDS011;57956;53.362;-1.518;2023-05-21T02:54:13;9.73;;;2.00;;
70477;SDS011;57956;53.362;-1.518;2023-05-21T02:56:38;5.78;;;1.88;;
70477;SDS011;57956;53.362;-1.518;2023-05-21T02:59:03;4.90;;;1.73;;
70477;SDS011;57956;53.362;-1.518;2023-05-21T03:01:29;7.47;;;2.00;;
70477;SDS011;57956;53.362;-1.518;2023-05-21T03:03:54;8.53;;;2.30;;
70477;SDS011;57956;53.362;-1.518;2023-05-21T03:06:19;6.63;;;1.90;;
70477;SDS011;57956;53.362;-1.518;2023-05-21T03:08:44;6.63;;;2.17;;
70477;SDS011;57956;53.362;-1.518;2023-05-21T03:11:10;5.37;;;1.90;;
70477;SDS011;57956;53.362;-1.518;2023-05-21T03:13:35;5.30;;;1.70;;
70477;SDS011;57956;53.362;-1.518;2023-05-21T03:16:00;5.90;;;2.40;;
70477;SDS011;57956;53.362;-1.518;2023-05-21T03:18:26;7.73;;;1.83;;
70477;SDS011;57956;53.362;-1.518;2023-05-21T03:20:51;6.20;;;2.20;;
70477;SDS011;57956;53.362;-1.518;2023-05-21T03:23:16;7.67;;;1.67;;
70477;SDS011;57956;53.362;-1.518;2023-05-21T03:25:42;5.80;;;1.60;;
70477;SDS011;57956;53.362;-1.518;2023-05-21T03:28:07;9.43;;;2.20;;
70477;SDS011;57956;53.362;-1.518;2023-05-21T03:30:34;6.82;;;2.25;;
70477;SDS011;57956;53.362;-1.518;2023-05-21T03:33:00;5.53;;;1.80;;
70477;SDS011;57956;53.362;-1.518;2023-05-21T03:35:30;5.68;;;2.13;;
70477;SDS011;57956;53.362;-1.518;2023-05-21T03:37:55;6.40;;;1.93;;
70477;SDS011;57956;53.362;-1.518;2023-05-21T03:40:20;8.93;;;1.67;;
70477;SDS011;57956;53.362;-1.518;2023-05-21T03:42:46;9.40;;;1.93;;
70477;SDS011;57956;53.362;-1.518;2023-05-21T03:45:11;5.93;;;2.00;;
70477;SDS011;57956;53.362;-1.518;2023-05-21T03:47:36;5.03;;;1.90;;
70477;SDS011;57956;53.362;-1.518;2023-05-21T03:50:02;6.30;;;1.70;;
70477;SDS011;57956;53.362;-1.518;2023-05-21T03:52:27;6.25;;;2.10;;
70477;SDS011;57956;53.362;-1.518;2023-05-21T03:54:53;8.10;;;1.93;;
70477;SDS011;57956;53.362;-1.518;2023-05-21T03:57:18;6.43;;;1.90;;
70477;SDS011;57956;53.362;-1.518;2023-05-21T03:59:43;6.63;;;2.00;;
70477;SDS011;57956;53.362;-1.518;2023-05-21T04:02:09;6.78;;;2.50;;
70477;SDS011;57956;53.362;-1.518;2023-05-21T04:04:34;8.20;;;2.60;;
70477;SDS011;57956;53.362;-1.518;2023-05-21T04:07:01;6.55;;;1.60;;
70477;SDS011;57956;53.362;-1.518;2023-05-21T04:09:28;6.80;;;1.48;;
70477;SDS011;57956;53.362;-1.518;2023-05-21T04:11:53;7.67;;;2.20;;
70477;SDS011;57956;53.362;-1.518;2023-05-21T04:14:19;6.43;;;1.50;;
70477;SDS011;57956;53.362;-1.518;2023-05-21T04:16:45;5.32;;;1.40;;
70477;SDS011;57956;53.362;-1.518;2023-05-21T04:19:12;4.90;;;1.70;;
70477;SDS011;57956;53.362;-1.518;2023-05-21T04:21:38;4.43;;;1.17;;
70477;SDS011;57956;53.362;-1.518;2023-05-21T04:24:03;5.40;;;1.80;;
70477;SDS011;57956;53.362;-1.518;2023-05-21T04:26:28;6.27;;;1.30;;
70477;SDS011;57956;53.362;-1.518;2023-05-21T04:28:57;5.03;;;1.27;;
70477;SDS011;57956;53.362;-1.518;2023-05-21T04:31:23;6.97;;;1.83;;
70477;SDS011;57956;53.362;-1.518;2023-05-21T04:33:48;6.53;;;1.30;;
70477;SDS011;57956;53.362;-1.518;2023-05-21T04:36:14;5.15;;;1.48;;
70477;SDS011;57956;53.362;-1.518;2023-05-21T04:38:41;5.90;;;1.10;;
70477;SDS011;57956;53.362;-1.518;2023-05-21T04:41:06;5.93;;;1.27;;
70477;SDS011;57956;53.362;-1.518;2023-05-21T04:43:34;4.70;;;1.50;;
70477;SDS011;57956;53.362;-1.518;2023-05-21T04:46:00;6.00;;;1.58;;
70477;SDS011;57956;53.362;-1.518;2023-05-21T04:48:26;3.27;;;0.73;;
70477;SDS011;57956;53.362;-1.518;2023-05-21T04:50:52;4.78;;;1.38;;
70477;SDS011;57956;53.362;-1.518;2023-05-21T04:53:18;5.20;;;1.33;;
70477;SDS011;57956;53.362;-1.518;2023-05-21T04:55:43;5.03;;;0.97;;
70477;SDS011;57956;53.362;-1.518;2023-05-21T04:58:08;5.50;;;1.33;;
70477;SDS011;57956;53.362;-1.518;2023-05-21T05:00:37;5.33;;;1.10;;
70477;SDS011;57956;53.362;-1.518;2023-05-21T05:03:02;6.85;;;1.60;;
70477;SDS011;57956;53.362;-1.518;2023-05-21T05:05:28;4.47;;;1.33;;
70477;SDS011;57956;53.362;-1.518;2023-05-21T05:07:53;7.07;;;1.30;;
70477;SDS011;57956;53.362;-1.518;2023-05-21T05:10:18;3.60;;;0.93;;
70477;SDS011;57956;53.362;-1.518;2023-05-21T05:12:44;4.47;;;1.10;;
70477;SDS011;57956;53.362;-1.518;2023-05-21T05:15:09;3.85;;;1.05;;
70477;SDS011;57956;53.362;-1.518;2023-05-21T05:17:34;5.03;;;0.90;;
70477;SDS011;57956;53.362;-1.518;2023-05-21T05:20:00;3.30;;;0.90;;
70477;SDS011;57956;53.362;-1.518;2023-05-21T05:22:25;5.83;;;0.73;;
70477;SDS011;57956;53.362;-1.518;2023-05-21T05:24:50;3.00;;;0.60;;
70477;SDS011;57956;53.362;-1.518;2023-05-21T05:27:16;4.63;;;1.02;;
70477;SDS011;57956;53.362;-1.518;2023-05-21T05:29:42;8.63;;;1.10;;
70477;SDS011;57956;53.362;-1.518;2023-05-21T05:32:10;5.05;;;1.73;;
70477;SDS011;57956;53.362;-1.518;2023-05-21T05:34:36;5.35;;;1.63;;
70477;SDS011;57956;53.362;-1.518;2023-05-21T05:37:01;5.83;;;1.40;;
70477;SDS011;57956;53.362;-1.518;2023-05-21T05:39:26;5.17;;;1.60;;
70477;SDS011;57956;53.362;-1.518;2023-05-21T05:41:52;5.23;;;1.50;;
70477;SDS011;57956;53.362;-1.518;2023-05-21T05:44:17;4.87;;;1.60;;
70477;SDS011;57956;53.362;-1.518;2023-05-21T05:46:42;6.23;;;1.80;;
70477;SDS011;57956;53.362;-1.518;2023-05-21T05:49:07;4.90;;;1.60;;
70477;SDS011;57956;53.362;-1.518;2023-05-21T05:51:33;5.90;;;2.00;;
70477;SDS011;57956;53.362;-1.518;2023-05-21T05:53:58;6.77;;;1.80;;
70477;SDS011;57956;53.362;-1.518;2023-05-21T05:56:24;9.13;;;2.00;;
70477;SDS011;57956;53.362;-1.518;2023-05-21T05:58:50;8.70;;;1.73;;
70477;SDS011;57956;53.362;-1.518;2023-05-21T06:01:16;6.87;;;1.93;;
70477;SDS011;57956;53.362;-1.518;2023-05-21T06:03:41;5.67;;;1.80;;
70477;SDS011;57956;53.362;-1.518;2023-05-21T06:06:06;6.63;;;1.90;;
70477;SDS011;57956;53.362;-1.518;2023-05-21T06:08:31;4.82;;;1.58;;
70477;SDS011;57956;53.362;-1.518;2023-05-21T06:10:58;5.57;;;1.60;;
70477;SDS011;57956;53.362;-1.518;2023-05-21T06:13:23;6.05;;;1.90;;
70477;SDS011;57956;53.362;-1.518;2023-05-21T06:15:49;11.73;;;1.70;;
70477;SDS011;57956;53.362;-1.518;2023-05-21T06:18:15;5.03;;;1.27;;
70477;SDS011;57956;53.362;-1.518;2023-05-21T06:20:40;5.03;;;1.27;;
70477;SDS011;57956;53.362;-1.518;2023-05-21T06:23:08;5.93;;;1.40;;
70477;SDS011;57956;53.362;-1.518;2023-05-21T06:25:34;5.25;;;1.63;;
70477;SDS011;57956;53.362;-1.518;2023-05-21T06:27:59;5.80;;;2.00;;
70477;SDS011;57956;53.362;-1.518;2023-05-21T06:30:24;6.23;;;1.80;;
70477;SDS011;57956;53.362;-1.518;2023-05-21T06:32:50;5.77;;;1.70;;
70477;SDS011;57956;53.362;-1.518;2023-05-21T06:35:15;5.90;;;1.30;;
70477;SDS011;57956;53.362;-1.518;2023-05-21T06:37:40;4.40;;;1.20;;
70477;SDS011;57956;53.362;-1.518;2023-05-21T06:40:07;3.70;;;1.20;;
70477;SDS011;57956;53.362;-1.518;2023-05-21T06:42:32;7.30;;;1.45;;
70477;SDS011;57956;53.362;-1.518;2023-05-21T06:44:58;6.20;;;1.70;;
70477;SDS011;57956;53.362;-1.518;2023-05-21T06:47:23;4.27;;;1.33;;
70477;SDS011;57956;53.362;-1.518;2023-05-21T06:49:48;5.65;;;1.05;;
70477;SDS011;57956;53.362;-1.518;2023-05-21T06:52:13;3.57;;;0.93;;
70477;SDS011;57956;53.362;-1.518;2023-05-21T06:54:39;4.47;;;0.93;;
70477;SDS011;57956;53.362;-1.518;2023-05-21T06:57:04;4.10;;;1.30;;
70477;SDS011;57956;53.362;-1.518;2023-05-21T06:59:29;4.90;;;1.33;;
70477;SDS011;57956;53.362;-1.518;2023-05-21T07:01:55;4.47;;;1.37;;
70477;SDS011;57956;53.362;-1.518;2023-05-21T07:04:20;7.53;;;1.13;;
70477;SDS011;57956;53.362;-1.518;2023-05-21T07:06:45;5.30;;;1.30;;
70477;SDS011;57956;53.362;-1.518;2023-05-21T07:09:12;4.67;;;0.87;;
70477;SDS011;57956;53.362;-1.518;2023-05-21T07:11:38;6.60;;;0.90;;
70477;SDS011;57956;53.362;-1.518;2023-05-21T07:14:03;3.67;;;1.10;;
70477;SDS011;57956;53.362;-1.518;2023-05-21T07:16:28;6.50;;;1.30;;
70477;SDS011;57956;53.362;-1.518;2023-05-21T07:18:53;6.17;;;1.27;;
70477;SDS011;57956;53.362;-1.518;2023-05-21T07:21:19;3.92;;;1.02;;
70477;SDS011;57956;53.362;-1.518;2023-05-21T07:23:44;4.23;;;1.47;;
70477;SDS011;57956;53.362;-1.518;2023-05-21T07:26:09;7.40;;;1.17;;
70477;SDS011;57956;53.362;-1.518;2023-05-21T07:28:35;3.20;;;1.00;;
70477;SDS011;57956;53.362;-1.518;2023-05-21T07:31:00;4.90;;;1.20;;
70477;SDS011;57956;53.362;-1.518;2023-05-21T07:33:25;5.00;;;1.27;;
70477;SDS011;57956;53.362;-1.518;2023-05-21T07:35:51;3.90;;;1.10;;
70477;SDS011;57956;53.362;-1.518;2023-05-21T07:38:16;6.50;;;1.17;;
70477;SDS011;57956;53.362;-1.518;2023-05-21T07:40:42;5.90;;;1.43;;
70477;SDS011;57956;53.362;-1.518;2023-05-21T07:43:07;4.17;;;1.00;;
70477;SDS011;57956;53.362;-1.518;2023-05-21T07:45:32;5.43;;;1.60;;
70477;SDS011;57956;53.362;-1.518;2023-05-21T07:47:57;5.00;;;0.80;;
70477;SDS011;57956;53.362;-1.518;2023-05-21T07:50:23;4.30;;;1.30;;
70477;SDS011;57956;53.362;-1.518;2023-05-21T07:52:49;9.37;;;1.83;;
70477;SDS011;57956;53.362;-1.518;2023-05-21T07:55:14;7.25;;;1.25;;
70477;SDS011;57956;53.362;-1.518;2023-05-21T07:57:39;4.70;;;1.30;;
70477;SDS011;57956;53.362;-1.518;2023-05-21T08:00:05;5.83;;;1.53;;
70477;SDS011;57956;53.362;-1.518;2023-05-21T08:02:33;3.63;;;1.15;;
70477;SDS011;57956;53.362;-1.518;2023-05-21T08:05:02;5.60;;;1.30;;
70477;SDS011;57956;53.362;-1.518;2023-05-21T08:07:27;4.75;;;0.95;;
70477;SDS011;57956;53.362;-1.518;2023-05-21T08:09:52;4.20;;;1.37;;
70477;SDS011;57956;53.362;-1.518;2023-05-21T08:12:18;3.63;;;1.10;;
70477;SDS011;57956;53.362;-1.518;2023-05-21T08:14:43;4.00;;;1.00;;
70477;SDS011;57956;53.362;-1.518;2023-05-21T08:17:09;5.10;;;0.83;;
70477;SDS011;57956;53.362;-1.518;2023-05-21T08:19:37;5.38;;;1.00;;
70477;SDS011;57956;53.362;-1.518;2023-05-21T08:22:02;3.43;;;0.90;;
70477;SDS011;57956;53.362;-1.518;2023-05-21T08:24:27;2.87;;;0.63;;
70477;SDS011;57956;53.362;-1.518;2023-05-21T08:26:53;4.47;;;1.00;;
70477;SDS011;57956;53.362;-1.518;2023-05-21T08:29:18;7.15;;;1.10;;
70477;SDS011;57956;53.362;-1.518;2023-05-21T08:31:43;5.40;;;1.20;;
70477;SDS011;57956;53.362;-1.518;2023-05-21T08:34:09;5.30;;;0.93;;
70477;SDS011;57956;53.362;-1.518;2023-05-21T08:36:34;3.70;;;0.73;;
70477;SDS011;57956;53.362;-1.518;2023-05-21T08:39:00;3.10;;;0.77;;
70477;SDS011;57956;53.362;-1.518;2023-05-21T08:41:25;5.82;;;1.20;;
70477;SDS011;57956;53.362;-1.518;2023-05-21T08:43:54;4.32;;;1.05;;
70477;SDS011;57956;53.362;-1.518;2023-05-21T08:46:21;3.40;;;0.97;;
70477;SDS011;57956;53.362;-1.518;2023-05-21T08:48:47;4.32;;;0.80;;
70477;SDS011;57956;53.362;-1.518;2023-05-21T08:51:12;4.17;;;0.60;;
70477;SDS011;57956;53.362;-1.518;2023-05-21T08:53:37;4.43;;;0.70;;
70477;SDS011;57956;53.362;-1.518;2023-05-21T08:56:03;4.15;;;0.70;;
70477;SDS011;57956;53.362;-1.518;2023-05-21T08:58:28;3.53;;;0.97;;
70477;SDS011;57956;53.362;-1.518;2023-05-21T09:00:56;5.63;;;1.10;;
70477;SDS011;57956;53.362;-1.518;2023-05-21T09:03:21;4.63;;;1.20;;
70477;SDS011;57956;53.362;-1.518;2023-05-21T09:05:47;5.22;;;0.80;;
70477;SDS011;57956;53.362;-1.518;2023-05-21T09:08:33;4.80;;;1.20;;
70477;SDS011;57956;53.362;-1.518;2023-05-21T09:10:59;3.42;;;0.80;;
70477;SDS011;57956;53.362;-1.518;2023-05-21T09:13:25;3.57;;;0.90;;
70477;SDS011;57956;53.362;-1.518;2023-05-21T09:15:51;5.88;;;1.20;;
70477;SDS011;57956;53.362;-1.518;2023-05-21T09:18:16;5.70;;;0.93;;
70477;SDS011;57956;53.362;-1.518;2023-05-21T09:20:41;3.87;;;0.80;;
70477;SDS011;57956;53.362;-1.518;2023-05-21T09:23:08;4.82;;;0.80;;
70477;SDS011;57956;53.362;-1.518;2023-05-21T09:25:43;2.95;;;0.68;;
70477;SDS011;57956;53.362;-1.518;2023-05-21T09:28:12;4.57;;;0.90;;
70477;SDS011;57956;53.362;-1.518;2023-05-21T09:30:42;3.33;;;0.90;;
70477;SDS011;57956;53.362;-1.518;2023-05-21T09:33:08;5.65;;;1.20;;
70477;SDS011;57956;53.362;-1.518;2023-05-21T09:35:33;4.13;;;1.10;;
70477;SDS011;57956;53.362;-1.518;2023-05-21T09:37:59;3.38;;;0.80;;
70477;SDS011;57956;53.362;-1.518;2023-05-21T09:40:25;4.20;;;1.20;;
70477;SDS011;57956;53.362;-1.518;2023-05-21T09:42:51;4.50;;;1.00;;
70477;SDS011;57956;53.362;-1.518;2023-05-21T09:45:20;3.08;;;0.93;;
70477;SDS011;57956;53.362;-1.518;2023-05-21T09:47:47;3.63;;;0.90;;
70477;SDS011;57956;53.362;-1.518;2023-05-21T09:50:13;4.28;;;0.93;;
70477;SDS011;57956;53.362;-1.518;2023-05-21T09:52:41;4.57;;;1.05;;
70477;SDS011;57956;53.362;-1.518;2023-05-21T09:55:09;4.27;;;1.23;;
70477;SDS011;57956;53.362;-1.518;2023-05-21T09:57:42;4.35;;;1.13;;
70477;SDS011;57956;53.362;-1.518;2023-05-21T10:00:08;3.05;;;0.93;;
70477;SDS011;57956;53.362;-1.518;2023-05-21T10:02:34;3.83;;;1.20;;
70477;SDS011;57956;53.362;-1.518;2023-05-21T10:05:01;4.40;;;1.27;;
70477;SDS011;57956;53.362;-1.518;2023-05-21T10:07:27;6.95;;;1.50;;
70477;SDS011;57956;53.362;-1.518;2023-05-21T10:09:54;4.38;;;1.17;;
70477;SDS011;57956;53.362;-1.518;2023-05-21T10:12:20;5.32;;;1.42;;
70477;SDS011;57956;53.362;-1.518;2023-05-21T10:14:48;3.70;;;1.03;;
70477;SDS011;57956;53.362;-1.518;2023-05-21T10:17:15;4.35;;;1.20;;
70477;SDS011;57956;53.362;-1.518;2023-05-21T10:19:41;3.40;;;1.02;;
70477;SDS011;57956;53.362;-1.518;2023-05-21T10:22:06;4.30;;;1.20;;
70477;SDS011;57956;53.362;-1.518;2023-05-21T10:24:32;5.90;;;1.45;;
70477;SDS011;57956;53.362;-1.518;2023-05-21T10:26:57;4.83;;;1.00;;
70477;SDS011;57956;53.362;-1.518;2023-05-21T10:29:23;4.93;;;1.17;;
70477;SDS011;57956;53.362;-1.518;2023-05-21T10:31:49;4.55;;;1.27;;
70477;SDS011;57956;53.362;-1.518;2023-05-21T10:34:16;4.10;;;0.90;;
70477;SDS011;57956;53.362;-1.518;2023-05-21T10:36:42;4.13;;;1.20;;
70477;SDS011;57956;53.362;-1.518;2023-05-21T10:39:07;6.80;;;1.35;;
70477;SDS011;57956;53.362;-1.518;2023-05-21T10:41:37;3.60;;;1.10;;
70477;SDS011;57956;53.362;-1.518;2023-05-21T10:44:11;3.43;;;1.00;;
70477;SDS011;57956;53.362;-1.518;2023-05-21T10:46:48;4.70;;;0.90;;
70477;SDS011;57956;53.362;-1.518;2023-05-21T11:01:57;4.13;;;1.20;;
70477;SDS011;57956;53.362;-1.518;2023-05-21T11:04:25;4.00;;;1.13;;
70477;SDS011;57956;53.362;-1.518;2023-05-21T11:06:50;3.70;;;1.30;;
70477;SDS011;57956;53.362;-1.518;2023-05-21T11:09:15;6.17;;;1.53;;
70477;SDS011;57956;53.362;-1.518;2023-05-21T11:14:25;3.70;;;1.00;;
70477;SDS011;57956;53.362;-1.518;2023-05-21T11:16:51;3.53;;;0.98;;
70477;SDS011;57956;53.362;-1.518;2023-05-21T11:19:17;4.03;;;1.10;;
70477;SDS011;57956;53.362;-1.518;2023-05-21T11:21:43;4.55;;;1.25;;
70477;SDS011;57956;53.362;-1.518;2023-05-21T11:24:17;5.50;;;1.20;;
70477;SDS011;57956;53.362;-1.518;2023-05-21T11:29:14;3.42;;;1.00;;
70477;SDS011;57956;53.362;-1.518;2023-05-21T11:31:47;4.22;;;0.90;;
70477;SDS011;57956;53.362;-1.518;2023-05-21T11:36:44;4.73;;;1.40;;
70477;SDS011;57956;53.362;-1.518;2023-05-21T11:39:13;5.57;;;1.02;;
70477;SDS011;57956;53.362;-1.518;2023-05-21T11:44:17;3.78;;;1.17;;
70477;SDS011;57956;53.362;-1.518;2023-05-21T11:46:42;3.97;;;0.73;;
70477;SDS011;57956;53.362;-1.518;2023-05-21T11:49:08;4.17;;;1.17;;
70477;SDS011;57956;53.362;-1.518;2023-05-21T11:51:33;4.68;;;1.00;;
70477;SDS011;57956;53.362;-1.518;2023-05-21T11:53:59;3.20;;;1.20;;
70477;SDS011;57956;53.362;-1.518;2023-05-21T11:56:25;3.67;;;1.10;;
70477;SDS011;57956;53.362;-1.518;2023-05-21T11:58:52;3.50;;;0.97;;
70477;SDS011;57956;53.362;-1.518;2023-05-21T12:01:22;3.22;;;1.00;;
70477;SDS011;57956;53.362;-1.518;2023-05-21T12:03:47;3.33;;;0.60;;
70477;SDS011;57956;53.362;-1.518;2023-05-21T12:06:13;4.33;;;0.70;;
70477;SDS011;57956;53.362;-1.518;2023-05-21T12:08:38;2.83;;;0.80;;
70477;SDS011;57956;53.362;-1.518;2023-05-21T12:11:03;4.63;;;0.60;;
70477;SDS011;57956;53.362;-1.518;2023-05-21T12:13:28;3.80;;;0.93;;
70477;SDS011;57956;53.362;-1.518;2023-05-21T12:15:54;3.80;;;0.90;;
70477;SDS011;57956;53.362;-1.518;2023-05-21T12:18:19;5.53;;;1.00;;
70477;SDS011;57956;53.362;-1.518;2023-05-21T12:20:45;4.03;;;0.82;;
70477;SDS011;57956;53.362;-1.518;2023-05-21T12:23:19;3.03;;;0.80;;
70477;SDS011;57956;53.362;-1.518;2023-05-21T12:25:47;4.38;;;0.85;;
70477;SDS011;57956;53.362;-1.518;2023-05-21T12:28:12;3.07;;;0.70;;
70477;SDS011;57956;53.362;-1.518;2023-05-21T12:30:37;3.13;;;0.90;;
70477;SDS011;57956;53.362;-1.518;2023-05-21T12:33:03;2.97;;;0.73;;
70477;SDS011;57956;53.362;-1.518;2023-05-21T12:35:28;4.05;;;1.23;;
70477;SDS011;57956;53.362;-1.518;2023-05-21T12:37:54;3.03;;;0.70;;
70477;SDS011;57956;53.362;-1.518;2023-05-21T12:40:19;3.22;;;0.95;;
70477;SDS011;57956;53.362;-1.518;2023-05-21T12:42:45;3.57;;;0.80;;
70477;SDS011;57956;53.362;-1.518;2023-05-21T12:45:10;5.03;;;1.17;;
70477;SDS011;57956;53.362;-1.518;2023-05-21T12:47:35;4.63;;;1.10;;
70477;SDS011;57956;53.362;-1.518;2023-05-21T12:50:06;3.87;;;1.20;;
70477;SDS011;57956;53.362;-1.518;2023-05-21T12:52:32;3.88;;;0.70;;
70477;SDS011;57956;53.362;-1.518;2023-05-21T12:54:57;5.40;;;0.90;;
70477;SDS011;57956;53.362;-1.518;2023-05-21T12:57:27;3.30;;;1.00;;
70477;SDS011;57956;53.362;-1.518;2023-05-21T12:59:59;5.70;;;0.82;;
70477;SDS011;57956;53.362;-1.518;2023-05-21T13:02:25;2.83;;;0.80;;
70477;SDS011;57956;53.362;-1.518;2023-05-21T13:05:01;3.43;;;0.80;;
70477;SDS011;57956;53.362;-1.518;2023-05-21T13:07:27;4.35;;;0.95;;
70477;SDS011;57956;53.362;-1.518;2023-05-21T13:09:53;3.72;;;1.17;;
70477;SDS011;57956;53.362;-1.518;2023-05-21T13:12:22;2.60;;;0.60;;
70477;SDS011;57956;53.362;-1.518;2023-05-21T13:14:51;3.25;;;0.90;;
70477;SDS011;57956;53.362;-1.518;2023-05-21T13:17:17;4.60;;;1.17;;
70477;SDS011;57956;53.362;-1.518;2023-05-21T13:19:45;3.38;;;0.75;;
70477;SDS011;57956;53.362;-1.518;2023-05-21T13:22:10;3.33;;;0.73;;
70477;SDS011;57956;53.362;-1.518;2023-05-21T13:24:36;2.47;;;0.60;;
70477;SDS011;57956;53.362;-1.518;2023-05-21T13:27:02;3.00;;;0.90;;
70477;SDS011;57956;53.362;-1.518;2023-05-21T13:29:27;2.60;;;0.60;;
70477;SDS011;57956;53.362;-1.518;2023-05-21T13:31:52;7.03;;;1.13;;
70477;SDS011;57956;53.362;-1.518;2023-05-21T13:34:17;4.07;;;1.43;;
70477;SDS011;57956;53.362;-1.518;2023-05-21T13:36:43;3.97;;;0.70;;
70477;SDS011;57956;53.362;-1.518;2023-05-21T13:39:08;3.60;;;0.90;;
70477;SDS011;57956;53.362;-1.518;2023-05-21T13:41:33;4.13;;;0.70;;
70477;SDS011;57956;53.362;-1.518;2023-05-21T13:43:58;2.63;;;0.67;;
70477;SDS011;57956;53.362;-1.518;2023-05-21T13:46:24;3.15;;;0.80;;
70477;SDS011;57956;53.362;-1.518;2023-05-21T13:48:49;4.20;;;1.10;;
70477;SDS011;57956;53.362;-1.518;2023-05-21T13:51:14;5.23;;;0.90;;
70477;SDS011;57956;53.362;-1.518;2023-05-21T13:53:40;4.13;;;1.10;;
70477;SDS011;57956;53.362;-1.518;2023-05-21T13:56:05;3.30;;;1.03;;
70477;SDS011;57956;53.362;-1.518;2023-05-21T13:58:30;4.23;;;0.80;;
70477;SDS011;57956;53.362;-1.518;2023-05-21T14:00:59;2.95;;;0.80;;
70477;SDS011;57956;53.362;-1.518;2023-05-21T14:03:25;3.38;;;0.82;;
70477;SDS011;57956;53.362;-1.518;2023-05-21T14:05:51;3.83;;;0.90;;
70477;SDS011;57956;53.362;-1.518;2023-05-21T14:08:17;3.22;;;0.93;;
70477;SDS011;57956;53.362;-1.518;2023-05-21T14:10:44;3.87;;;0.83;;
70477;SDS011;57956;53.362;-1.518;2023-05-21T14:13:11;3.40;;;1.05;;
70477;SDS011;57956;53.362;-1.518;2023-05-21T14:15:36;2.50;;;0.60;;
70477;SDS011;57956;53.362;-1.518;2023-05-21T14:18:02;3.92;;;1.00;;
70477;SDS011;57956;53.362;-1.518;2023-05-21T14:20:31;4.03;;;0.98;;
70477;SDS011;57956;53.362;-1.518;2023-05-21T14:22:56;2.97;;;0.80;;
70477;SDS011;57956;53.362;-1.518;2023-05-21T14:25:22;4.67;;;0.90;;
70477;SDS011;57956;53.362;-1.518;2023-05-21T14:27:47;3.07;;;0.90;;
70477;SDS011;57956;53.362;-1.518;2023-05-21T14:30:12;4.67;;;0.80;;
70477;SDS011;57956;53.362;-1.518;2023-05-21T14:32:37;2.83;;;0.77;;
70477;SDS011;57956;53.362;-1.518;2023-05-21T14:35:03;4.30;;;1.20;;
70477;SDS011;57956;53.362;-1.518;2023-05-21T14:37:28;4.60;;;0.75;;
70477;SDS011;57956;53.362;-1.518;2023-05-21T14:39:53;3.87;;;1.00;;
70477;SDS011;57956;53.362;-1.518;2023-05-21T14:42:19;3.10;;;0.90;;
70477;SDS011;57956;53.362;-1.518;2023-05-21T14:44:44;5.73;;;1.00;;
70477;SDS011;57956;53.362;-1.518;2023-05-21T14:47:09;5.27;;;0.90;;
70477;SDS011;57956;53.362;-1.518;2023-05-21T14:49:34;3.50;;;0.67;;